createdAt,value
2023-02-20T00:00:44.887Z,-53.69
2023-02-20T00:01:48.114Z,-63.93
2023-02-20T00:02:51.515Z,-48.57
2023-02-20T00:03:54.713Z,-48.57
2023-02-20T00:04:58.011Z,-38.33
2023-02-20T00:06:01.284Z,-66.49
2023-02-20T00:07:04.602Z,-46.01
2023-02-20T00:08:06.886Z,-74.17
2023-02-20T00:09:10.172Z,-58.81
2023-02-20T00:10:13.533Z,-40.89
2023-02-20T00:11:16.822Z,-53.69
2023-02-20T00:12:20.061Z,-46.01
2023-02-20T00:13:23.443Z,-46.01
2023-02-20T00:14:26.677Z,2.56
2023-02-20T00:15:28.972Z,-38.33
2023-02-20T00:16:31.267Z,-38.33
2023-02-20T00:17:33.602Z,-25.53
2023-02-20T00:18:35.874Z,-61.37
2023-02-20T00:19:39.160Z,-35.77
2023-02-20T00:20:42.484Z,-28.09
2023-02-20T00:21:45.756Z,-38.33
2023-02-20T00:22:49.057Z,-28.09
2023-02-20T00:23:52.371Z,-22.97
2023-02-20T00:24:55.629Z,-25.53
2023-02-20T00:25:58.920Z,-17.85
2023-02-20T00:27:02.289Z,-28.09
2023-02-20T00:28:05.514Z,-51.13
2023-02-20T00:29:08.793Z,-22.97
2023-02-20T00:30:12.078Z,-22.97
2023-02-20T00:31:15.378Z,-12.73
2023-02-20T00:32:17.704Z,-10.17
2023-02-20T00:33:20.988Z,-2.49
2023-02-20T00:34:24.277Z,-22.97
2023-02-20T00:35:27.572Z,-10.17
2023-02-20T00:36:31.394Z,-25.53
2023-02-20T00:37:34.654Z,-22.97
2023-02-20T00:38:37.989Z,-5.05
2023-02-20T00:39:40.300Z,2.64
2023-02-20T00:40:42.657Z,2.64
2023-02-20T00:41:45.881Z,10.32
2023-02-20T00:42:48.186Z,-10.17
2023-02-20T00:43:50.503Z,7.76
2023-02-20T00:44:53.789Z,-22.97
2023-02-20T00:45:57.198Z,30.8
2023-02-20T00:47:00.368Z,-5.05
2023-02-20T00:48:03.667Z,20.56
2023-02-20T00:49:06.958Z,23.12
2023-02-20T00:50:10.250Z,2.64
2023-02-20T00:51:13.566Z,2.56
2023-02-20T00:52:16.833Z,20.56
2023-02-20T00:53:20.120Z,30.8
2023-02-20T00:54:23.511Z,20.56
2023-02-20T00:55:26.707Z,35.92
2023-02-20T00:56:30.150Z,25.68
2023-02-20T00:57:32.310Z,41.04
2023-02-20T00:58:35.590Z,48.72
2023-02-20T00:59:38.907Z,35.92
2023-02-20T01:00:42.170Z,43.6
2023-02-20T01:01:45.467Z,12.88
2023-02-20T01:02:48.795Z,43.6
2023-02-20T01:03:52.065Z,35.92
2023-02-20T01:04:54.369Z,18
2023-02-20T01:05:56.684Z,48.72
2023-02-20T01:06:58.993Z,35.92
2023-02-20T01:08:01.309Z,25.68
2023-02-20T01:09:04.677Z,43.6
2023-02-20T01:10:07.879Z,35.92
2023-02-20T01:11:11.157Z,35.92
2023-02-20T01:12:14.516Z,53.84
2023-02-20T01:13:17.768Z,46.16
2023-02-20T01:14:21.048Z,56.4
2023-02-20T01:15:24.342Z,53.84
2023-02-20T01:16:27.637Z,23.12
2023-02-20T01:17:31.639Z,33.36
2023-02-20T01:18:34.930Z,35.92
2023-02-20T01:19:38.243Z,64.08
2023-02-20T01:20:41.533Z,25.68
2023-02-20T01:21:43.814Z,69.2
2023-02-20T01:22:47.119Z,56.4
2023-02-20T01:23:50.467Z,58.96
2023-02-20T01:24:53.686Z,41.04
2023-02-20T01:25:56.970Z,64.08
2023-02-20T01:27:00.284Z,35.92
2023-02-20T01:28:03.568Z,2.56
2023-02-20T01:29:05.880Z,56.4
2023-02-20T01:30:08.194Z,25.68
2023-02-20T01:31:11.484Z,12.88
2023-02-20T01:32:14.782Z,43.6
2023-02-20T01:33:18.069Z,35.92
2023-02-20T01:34:21.347Z,43.6
2023-02-20T01:35:24.643Z,23.12
2023-02-20T01:36:27.945Z,30.8
2023-02-20T01:37:31.788Z,53.84
2023-02-20T01:38:35.053Z,69.2
2023-02-20T01:39:38.362Z,64.08
2023-02-20T01:40:41.634Z,76.88
2023-02-20T01:41:44.951Z,53.84
2023-02-20T01:42:48.227Z,76.88
2023-02-20T01:43:50.541Z,53.84
2023-02-20T01:44:53.842Z,46.16
2023-02-20T01:45:57.104Z,58.96
2023-02-20T01:47:00.426Z,76.88
2023-02-20T01:48:03.693Z,58.96
2023-02-20T01:49:06.995Z,69.2
2023-02-20T01:50:10.317Z,76.88
2023-02-20T01:51:12.614Z,84.56
2023-02-20T01:52:14.908Z,76.88
2023-02-20T01:53:17.220Z,76.88
2023-02-20T01:54:19.519Z,64.08
2023-02-20T01:55:22.820Z,56.4
2023-02-20T01:56:26.111Z,66.64
2023-02-20T01:57:29.408Z,56.4
2023-02-20T01:58:32.714Z,53.84
2023-02-20T01:59:35.979Z,58.96
2023-02-20T02:00:39.291Z,69.2
2023-02-20T02:01:42.580Z,69.2
2023-02-20T02:02:45.866Z,56.4
2023-02-20T02:03:49.142Z,48.72
2023-02-20T02:04:52.450Z,56.4
2023-02-20T02:05:55.733Z,74.32
2023-02-20T02:06:59.043Z,35.92
2023-02-20T02:08:01.357Z,66.64
2023-02-20T02:09:04.661Z,66.64
2023-02-20T02:10:07.932Z,33.36
2023-02-20T02:11:11.254Z,69.2
2023-02-20T02:12:14.507Z,53.84
2023-02-20T02:13:17.802Z,64.08
2023-02-20T02:14:21.137Z,43.6
2023-02-20T02:15:23.388Z,64.08
2023-02-20T02:16:25.703Z,69.2
2023-02-20T02:17:28.017Z,46.16
2023-02-20T02:18:30.307Z,53.84
2023-02-20T02:19:33.641Z,43.6
2023-02-20T02:20:36.894Z,35.92
2023-02-20T02:21:40.196Z,41.04
2023-02-20T02:22:43.484Z,76.88
2023-02-20T02:23:46.780Z,56.4
2023-02-20T02:24:50.114Z,46.16
2023-02-20T02:25:53.452Z,43.6
2023-02-20T02:26:56.641Z,48.72
2023-02-20T02:27:59.941Z,35.92
2023-02-20T02:29:03.243Z,25.68
2023-02-20T02:30:06.533Z,41.04
2023-02-20T02:31:09.832Z,41.04
2023-02-20T02:32:12.162Z,10.32
2023-02-20T02:33:15.416Z,41.04
2023-02-20T02:34:18.699Z,46.16
2023-02-20T02:35:22.014Z,48.72
2023-02-20T02:36:25.300Z,48.72
2023-02-20T02:37:29.159Z,69.2
2023-02-20T02:38:32.458Z,58.96
2023-02-20T02:39:34.753Z,74.32
2023-02-20T02:40:37.080Z,56.4
2023-02-20T02:41:39.402Z,76.88
2023-02-20T02:42:41.692Z,56.4
2023-02-20T02:43:44.962Z,89.68
2023-02-20T02:44:48.287Z,2.56
2023-02-20T02:45:51.565Z,76.88
2023-02-20T02:46:54.845Z,64.08
2023-02-20T02:47:58.141Z,79.44
2023-02-20T02:49:01.435Z,69.2
2023-02-20T02:50:04.741Z,87.12
2023-02-20T02:51:08.025Z,89.68
2023-02-20T02:52:11.318Z,74.32
2023-02-20T02:53:14.673Z,92.24
2023-02-20T02:54:17.952Z,87.12
2023-02-20T02:55:21.187Z,56.4
2023-02-20T02:56:23.542Z,92.24
2023-02-20T02:57:26.799Z,58.96
2023-02-20T02:58:30.074Z,89.68
2023-02-20T02:59:33.381Z,79.44
2023-02-20T03:00:36.726Z,48.72
2023-02-20T03:01:39.946Z,99.92
2023-02-20T03:02:43.254Z,97.36
2023-02-20T03:03:45.569Z,76.88
2023-02-20T03:04:47.881Z,69.2
2023-02-20T03:05:50.190Z,46.16
2023-02-20T03:06:52.486Z,76.88
2023-02-20T03:07:55.794Z,87.12
2023-02-20T03:08:59.095Z,66.64
2023-02-20T03:10:02.387Z,76.88
2023-02-20T03:11:05.651Z,84.56
2023-02-20T03:12:08.948Z,76.88
2023-02-20T03:13:12.249Z,76.88
2023-02-20T03:14:15.561Z,58.96
2023-02-20T03:15:17.841Z,69.2
2023-02-20T03:16:21.123Z,64.08
2023-02-20T03:17:24.420Z,89.68
2023-02-20T03:18:27.714Z,92.24
2023-02-20T03:19:31.020Z,79.44
2023-02-20T03:20:34.313Z,87.12
2023-02-20T03:21:37.594Z,102.48
2023-02-20T03:22:40.887Z,89.68
2023-02-20T03:23:44.198Z,79.44
2023-02-20T03:24:47.465Z,89.68
2023-02-20T03:25:50.766Z,102.48
2023-02-20T03:26:54.206Z,92.24
2023-02-20T03:27:56.373Z,84.56
2023-02-20T03:28:58.667Z,89.68
2023-02-20T03:30:01.967Z,76.88
2023-02-20T03:31:04.286Z,112.72
2023-02-20T03:32:06.591Z,102.48
2023-02-20T03:33:09.884Z,110.16
2023-02-20T03:34:13.167Z,128.08
2023-02-20T03:35:16.464Z,130.64
2023-02-20T03:36:19.768Z,120.4
2023-02-20T03:37:23.111Z,117.84
2023-02-20T03:38:26.352Z,110.16
2023-02-20T03:39:29.653Z,92.24
2023-02-20T03:40:32.938Z,122.96
2023-02-20T03:41:36.226Z,133.2
2023-02-20T03:42:39.528Z,128.08
2023-02-20T03:43:42.813Z,133.2
2023-02-20T03:44:46.096Z,138.32
2023-02-20T03:45:48.410Z,158.8
2023-02-20T03:46:51.714Z,110.16
2023-02-20T03:47:54.980Z,87.12
2023-02-20T03:48:58.294Z,97.36
2023-02-20T03:50:01.575Z,92.24
2023-02-20T03:51:04.862Z,66.64
2023-02-20T03:52:08.177Z,69.2
2023-02-20T03:53:10.494Z,87.12
2023-02-20T03:54:12.779Z,92.24
2023-02-20T03:55:15.098Z,69.2
2023-02-20T03:56:17.384Z,64.08
2023-02-20T03:57:20.765Z,84.56
2023-02-20T03:58:24.005Z,92.24
2023-02-20T03:59:27.291Z,117.84
2023-02-20T04:00:30.569Z,117.84
2023-02-20T04:01:33.856Z,97.36
2023-02-20T04:02:37.143Z,117.84
2023-02-20T04:03:40.429Z,130.64
2023-02-20T04:04:43.716Z,133.2
2023-02-20T04:05:47.049Z,138.32
2023-02-20T04:06:50.328Z,151.12
2023-02-20T04:07:53.600Z,-56.24
2023-02-20T04:08:56.946Z,171.59
2023-02-20T04:09:59.202Z,-184.25
2023-02-20T04:11:02.508Z,-66.49
2023-02-20T04:12:05.789Z,-2.49
2023-02-20T04:13:09.073Z,30.8
2023-02-20T04:14:12.403Z,87.12
2023-02-20T04:15:15.671Z,79.44
2023-02-20T04:16:18.984Z,97.36
2023-02-20T04:17:21.282Z,99.92
2023-02-20T04:18:23.569Z,99.92
2023-02-20T04:19:26.869Z,117.84
2023-02-20T04:20:30.163Z,133.2
2023-02-20T04:21:33.445Z,122.96
2023-02-20T04:22:36.757Z,120.4
2023-02-20T04:23:40.043Z,128.08
2023-02-20T04:24:43.328Z,112.72
2023-02-20T04:25:46.616Z,140.88
2023-02-20T04:26:49.932Z,117.84
2023-02-20T04:27:53.212Z,138.32
2023-02-20T04:28:56.488Z,158.8
2023-02-20T04:29:59.791Z,158.8
2023-02-20T04:31:03.081Z,176.72
2023-02-20T04:32:05.372Z,151.12
2023-02-20T04:33:08.730Z,158.8
2023-02-20T04:34:11.958Z,156.24
2023-02-20T04:35:15.265Z,130.64
2023-02-20T04:36:18.559Z,2.56
2023-02-20T04:37:21.840Z,130.64
2023-02-20T04:38:25.142Z,158.8
2023-02-20T04:39:27.443Z,158.8
2023-02-20T04:40:30.790Z,148.56
2023-02-20T04:41:33.058Z,166.48
2023-02-20T04:42:35.361Z,143.44
2023-02-20T04:43:38.648Z,189.52
2023-02-20T04:44:40.965Z,166.48
2023-02-20T04:45:43.285Z,171.6
2023-02-20T04:46:46.570Z,207.44
2023-02-20T04:47:49.859Z,199.76
2023-02-20T04:48:53.148Z,222.8
2023-02-20T04:49:56.452Z,176.72
2023-02-20T04:50:59.718Z,192.08
2023-02-20T04:52:03.017Z,189.52
2023-02-20T04:53:06.305Z,199.76
2023-02-20T04:54:09.621Z,186.96
2023-02-20T04:55:12.909Z,189.52
2023-02-20T04:56:16.191Z,207.44
2023-02-20T04:57:19.470Z,192.08
2023-02-20T04:58:22.778Z,179.28
2023-02-20T04:59:25.079Z,222.8
2023-02-20T05:00:28.380Z,210
2023-02-20T05:01:31.661Z,215.12
2023-02-20T05:02:34.964Z,197.2
2023-02-20T05:03:38.257Z,217.68
2023-02-20T05:04:41.544Z,215.12
2023-02-20T05:05:44.847Z,192.08
2023-02-20T05:06:47.158Z,199.76
2023-02-20T05:07:49.433Z,238.16
2023-02-20T05:08:52.748Z,222.8
2023-02-20T05:09:56.039Z,215.12
2023-02-20T05:10:59.317Z,233.04
2023-02-20T05:12:02.624Z,222.8
2023-02-20T05:13:05.917Z,186.96
2023-02-20T05:14:09.210Z,171.6
2023-02-20T05:15:12.506Z,169.04
2023-02-20T05:16:15.788Z,143.44
2023-02-20T05:17:19.093Z,158.8
2023-02-20T05:18:22.368Z,156.24
2023-02-20T05:19:25.661Z,128.08
2023-02-20T05:20:28.954Z,112.72
2023-02-20T05:21:31.270Z,130.64
2023-02-20T05:22:34.569Z,138.32
2023-02-20T05:23:37.868Z,130.64
2023-02-20T05:24:41.153Z,140.88
2023-02-20T05:25:44.452Z,128.08
2023-02-20T05:26:47.731Z,140.88
2023-02-20T05:27:51.048Z,140.88
2023-02-20T05:28:53.336Z,102.48
2023-02-20T05:29:55.639Z,122.96
2023-02-20T05:30:57.965Z,122.96
2023-02-20T05:32:00.281Z,158.8
2023-02-20T05:33:03.599Z,148.56
2023-02-20T05:34:06.842Z,151.12
2023-02-20T05:35:10.142Z,179.28
2023-02-20T05:36:13.437Z,199.76
2023-02-20T05:37:16.736Z,171.6
2023-02-20T05:38:20.005Z,171.6
2023-02-20T05:39:23.299Z,192.08
2023-02-20T05:40:26.585Z,204.88
2023-02-20T05:41:30.306Z,179.28
2023-02-20T05:42:33.625Z,215.12
2023-02-20T05:43:36.874Z,217.68
2023-02-20T05:44:40.172Z,227.92
2023-02-20T05:45:42.483Z,222.8
2023-02-20T05:46:45.776Z,215.12
2023-02-20T05:47:49.129Z,225.36
2023-02-20T05:48:52.367Z,217.68
2023-02-20T05:49:55.684Z,227.92
2023-02-20T05:50:58.958Z,222.8
2023-02-20T05:52:02.246Z,235.6
2023-02-20T05:53:04.570Z,215.12
2023-02-20T05:54:06.856Z,222.8
2023-02-20T05:55:09.184Z,179.28
2023-02-20T05:56:11.473Z,215.12
2023-02-20T05:57:14.833Z,207.44
2023-02-20T05:58:18.078Z,215.12
2023-02-20T05:59:21.400Z,197.2
2023-02-20T06:00:24.643Z,2.56
2023-02-20T06:01:27.931Z,197.2
2023-02-20T06:02:31.227Z,189.52
2023-02-20T06:03:34.528Z,197.2
2023-02-20T06:04:37.813Z,227.92
2023-02-20T06:05:41.125Z,227.92
2023-02-20T06:06:44.400Z,199.76
2023-02-20T06:07:47.687Z,207.44
2023-02-20T06:08:51.024Z,207.44
2023-02-20T06:09:53.322Z,222.8
2023-02-20T06:10:56.591Z,207.44
2023-02-20T06:11:59.881Z,210
2023-02-20T06:13:03.204Z,210
2023-02-20T06:14:06.459Z,207.44
2023-02-20T06:15:09.761Z,217.68
2023-02-20T06:16:13.060Z,217.68
2023-02-20T06:17:15.397Z,227.92
2023-02-20T06:18:17.676Z,215.12
2023-02-20T06:19:19.985Z,217.68
2023-02-20T06:20:22.324Z,215.12
2023-02-20T06:21:25.594Z,215.12
2023-02-20T06:22:28.908Z,215.12
2023-02-20T06:23:32.155Z,215.12
2023-02-20T06:24:35.447Z,217.68
2023-02-20T06:25:38.738Z,207.44
2023-02-20T06:26:42.040Z,215.12
2023-02-20T06:27:45.361Z,222.8
2023-02-20T06:28:48.685Z,199.76
2023-02-20T06:29:51.915Z,199.76
2023-02-20T06:30:55.339Z,151.12
2023-02-20T06:31:58.558Z,176.72
2023-02-20T06:33:01.792Z,207.44
2023-02-20T06:34:04.104Z,199.76
2023-02-20T06:35:07.400Z,192.08
2023-02-20T06:36:10.709Z,166.48
2023-02-20T06:37:14.004Z,192.08
2023-02-20T06:38:17.269Z,169.04
2023-02-20T06:39:20.552Z,192.08
2023-02-20T06:40:23.872Z,-15.28
2023-02-20T06:41:26.171Z,145.99
2023-02-20T06:42:28.484Z,-143.29
2023-02-20T06:43:30.794Z,-2.49
2023-02-20T06:44:33.706Z,69.2
2023-02-20T06:45:37.000Z,110.16
2023-02-20T06:46:39.297Z,138.32
2023-02-20T06:47:42.589Z,151.12
2023-02-20T06:48:45.889Z,166.48
2023-02-20T06:49:49.161Z,166.48
2023-02-20T06:50:52.474Z,179.28
2023-02-20T06:51:55.781Z,169.04
2023-02-20T06:52:59.041Z,169.04
2023-02-20T06:54:02.407Z,130.64
2023-02-20T06:55:05.685Z,158.8
2023-02-20T06:56:08.918Z,158.8
2023-02-20T06:57:12.214Z,151.12
2023-02-20T06:58:15.536Z,151.12
2023-02-20T06:59:18.934Z,128.08
2023-02-20T07:00:21.110Z,102.48
2023-02-20T07:01:24.390Z,97.36
2023-02-20T07:02:27.710Z,84.56
2023-02-20T07:03:30.984Z,89.68
2023-02-20T07:04:34.284Z,138.32
2023-02-20T07:05:36.607Z,143.44
2023-02-20T07:06:38.901Z,143.44
2023-02-20T07:07:41.225Z,158.8
2023-02-20T07:08:43.505Z,128.08
2023-02-20T07:09:46.850Z,140.88
2023-02-20T07:10:50.100Z,120.4
2023-02-20T07:11:53.400Z,110.16
2023-02-20T07:12:56.679Z,138.32
2023-02-20T07:14:00.050Z,122.96
2023-02-20T07:15:03.279Z,110.16
2023-02-20T07:16:06.563Z,140.88
2023-02-20T07:17:09.902Z,151.12
2023-02-20T07:18:13.145Z,138.32
2023-02-20T07:19:16.588Z,133.2
2023-02-20T07:20:19.733Z,171.6
2023-02-20T07:21:23.021Z,148.56
2023-02-20T07:22:25.343Z,148.56
2023-02-20T07:23:28.653Z,166.48
2023-02-20T07:24:31.898Z,171.6
2023-02-20T07:25:35.196Z,179.28
2023-02-20T07:26:38.511Z,186.96
2023-02-20T07:27:41.786Z,189.52
2023-02-20T07:28:45.079Z,207.44
2023-02-20T07:29:47.513Z,181.84
2023-02-20T07:30:49.694Z,176.72
2023-02-20T07:31:52.992Z,204.88
2023-02-20T07:32:56.285Z,171.6
2023-02-20T07:33:59.571Z,204.88
2023-02-20T07:35:02.857Z,199.76
2023-02-20T07:36:06.138Z,215.12
2023-02-20T07:37:09.482Z,199.76
2023-02-20T07:38:12.797Z,181.84
2023-02-20T07:39:16.040Z,161.36
2023-02-20T07:40:19.313Z,204.88
2023-02-20T07:41:22.634Z,204.88
2023-02-20T07:42:25.921Z,189.52
2023-02-20T07:43:29.199Z,-171.59
2023-02-20T07:44:31.524Z,176.72
2023-02-20T07:45:34.852Z,204.88
2023-02-20T07:46:38.095Z,176.72
2023-02-20T07:47:41.377Z,192.08
2023-02-20T07:48:44.674Z,156.24
2023-02-20T07:49:47.966Z,189.52
2023-02-20T07:50:51.251Z,199.76
2023-02-20T07:51:53.566Z,192.08
2023-02-20T07:52:55.910Z,210
2023-02-20T07:53:58.215Z,189.52
2023-02-20T07:55:00.495Z,186.96
2023-02-20T07:56:02.823Z,166.48
2023-02-20T07:57:05.104Z,192.08
2023-02-20T07:58:08.414Z,166.48
2023-02-20T07:59:11.705Z,192.08
2023-02-20T08:00:15.076Z,169.04
2023-02-20T08:01:18.310Z,171.6
2023-02-20T08:02:21.639Z,192.08
2023-02-20T08:03:25.029Z,222.8
2023-02-20T08:04:28.195Z,199.76
2023-02-20T08:05:31.477Z,207.44
2023-02-20T08:06:34.847Z,227.92
2023-02-20T08:07:38.041Z,222.8
2023-02-20T08:08:41.333Z,233.04
2023-02-20T08:09:44.691Z,199.76
2023-02-20T08:10:46.926Z,222.8
2023-02-20T08:11:50.211Z,217.68
2023-02-20T08:12:53.513Z,207.44
2023-02-20T08:13:56.835Z,204.88
2023-02-20T08:15:00.134Z,225.36
2023-02-20T08:16:03.386Z,215.12
2023-02-20T08:17:06.685Z,210
2023-02-20T08:18:09.006Z,204.88
2023-02-20T08:19:11.304Z,171.6
2023-02-20T08:20:13.608Z,143.44
2023-02-20T08:21:15.927Z,112.72
2023-02-20T08:22:19.213Z,89.68
2023-02-20T08:23:22.634Z,-48.57
2023-02-20T08:24:25.964Z,-51.13
2023-02-20T08:25:29.259Z,-63.93
2023-02-20T08:26:32.486Z,-48.57
2023-02-20T08:27:35.672Z,-66.49
2023-02-20T08:28:39.039Z,-53.69
2023-02-20T08:29:42.301Z,-40.89
2023-02-20T08:30:45.549Z,-48.57
2023-02-20T08:31:48.859Z,-86.97
2023-02-20T08:32:52.136Z,-92.09
2023-02-20T08:33:55.433Z,-86.97
2023-02-20T08:34:57.728Z,-53.69
2023-02-20T08:36:01.056Z,-53.69
2023-02-20T08:37:04.297Z,-51.13
2023-02-20T08:38:07.638Z,-61.37
2023-02-20T08:39:10.889Z,-79.29
2023-02-20T08:40:14.365Z,-79.29
2023-02-20T08:41:17.631Z,-53.69
2023-02-20T08:42:19.794Z,-53.69
2023-02-20T08:43:22.107Z,-48.57
2023-02-20T08:44:25.441Z,-63.93
2023-02-20T08:45:28.679Z,-76.73
2023-02-20T08:46:31.979Z,-76.73
2023-02-20T08:47:34.481Z,-102.33
2023-02-20T08:48:36.765Z,-69.05
2023-02-20T08:49:40.064Z,-102.33
2023-02-20T08:50:43.354Z,-81.85
2023-02-20T08:51:46.653Z,-74.17
2023-02-20T08:52:49.945Z,-74.17
2023-02-20T08:53:53.221Z,-81.85
2023-02-20T08:54:56.510Z,-61.37
2023-02-20T08:55:59.807Z,-81.85
2023-02-20T08:57:03.110Z,-66.49
2023-02-20T08:58:06.395Z,-48.57
2023-02-20T08:59:09.674Z,-63.93
2023-02-20T09:00:12.974Z,-66.49
2023-02-20T09:01:16.275Z,-35.77
2023-02-20T09:02:18.660Z,-58.81
2023-02-20T09:03:21.870Z,-35.77
2023-02-20T09:04:25.151Z,-61.37
2023-02-20T09:05:28.439Z,-35.77
2023-02-20T09:06:31.740Z,-48.57
2023-02-20T09:07:35.039Z,-61.37
2023-02-20T09:08:38.322Z,-40.89
2023-02-20T09:09:40.656Z,-51.13
2023-02-20T09:10:42.968Z,-38.33
2023-02-20T09:11:45.284Z,-48.57
2023-02-20T09:12:47.559Z,-53.69
2023-02-20T09:13:50.868Z,-2.49
2023-02-20T09:14:54.165Z,-22.97
2023-02-20T09:15:57.447Z,-5.05
2023-02-20T09:17:00.730Z,-12.73
2023-02-20T09:18:04.064Z,-15.29
2023-02-20T09:19:07.421Z,-2.49
2023-02-20T09:20:10.641Z,-10.17
2023-02-20T09:21:13.966Z,0.08
2023-02-20T09:22:17.258Z,-15.29
2023-02-20T09:23:20.485Z,2.64
2023-02-20T09:24:23.807Z,-5.05
2023-02-20T09:25:27.178Z,-2.49
2023-02-20T09:26:29.390Z,-15.29
2023-02-20T09:27:32.832Z,-2.49
2023-02-20T09:28:35.961Z,-2.49
2023-02-20T09:29:39.370Z,0.08
2023-02-20T09:30:42.729Z,-2.49
2023-02-20T09:31:45.837Z,-22.97
2023-02-20T09:32:49.124Z,-25.53
2023-02-20T09:33:51.454Z,-10.17
2023-02-20T09:34:53.754Z,-191.93
2023-02-20T09:35:57.056Z,-89.53
2023-02-20T09:37:00.362Z,-232.89
2023-02-20T09:38:03.631Z,212.55
2023-02-20T09:39:06.917Z,192.07
2023-02-20T09:40:10.208Z,184.39
2023-02-20T09:41:13.519Z,212.55
2023-02-20T09:42:16.801Z,294.47
2023-02-20T09:43:20.105Z,294.47
2023-02-20T09:44:23.386Z,-291.77
2023-02-20T09:45:26.667Z,-255.93
2023-02-20T09:46:29.962Z,-238.01
2023-02-20T09:47:33.271Z,-220.09
2023-02-20T09:48:35.574Z,-266.17
2023-02-20T09:49:38.853Z,-227.77
2023-02-20T09:50:42.152Z,-197.05
2023-02-20T09:51:45.448Z,-179.13
2023-02-20T09:52:48.730Z,-174.01
2023-02-20T09:53:52.055Z,-161.21
2023-02-20T09:54:55.320Z,-133.05
2023-02-20T09:55:57.630Z,-148.41
2023-02-20T09:56:59.953Z,-117.69
2023-02-20T09:58:02.255Z,-122.81
2023-02-20T09:59:04.607Z,-102.33
2023-02-20T10:00:07.903Z,-92.09
2023-02-20T10:01:10.238Z,-117.69
2023-02-20T10:02:12.487Z,-79.29
2023-02-20T10:03:15.766Z,-79.29
2023-02-20T10:04:19.066Z,-86.97
2023-02-20T10:05:22.361Z,-61.37
2023-02-20T10:06:25.641Z,-51.13
2023-02-20T10:07:29.157Z,-66.49
2023-02-20T10:08:32.333Z,-38.33
2023-02-20T10:09:35.654Z,-35.77
2023-02-20T10:10:38.809Z,-66.49
2023-02-20T10:11:42.292Z,-15.29
2023-02-20T10:12:45.387Z,-25.53
2023-02-20T10:13:48.678Z,-15.29
2023-02-20T10:14:51.976Z,-28.09
2023-02-20T10:15:54.272Z,-22.97
2023-02-20T10:16:57.576Z,-17.85
2023-02-20T10:17:59.886Z,23.12
2023-02-20T10:19:03.185Z,12.88
2023-02-20T10:20:06.479Z,30.8
2023-02-20T10:21:09.754Z,20.56
2023-02-20T10:22:13.058Z,2.64
2023-02-20T10:23:15.377Z,-10.17
2023-02-20T10:24:17.691Z,23.12
2023-02-20T10:25:20.003Z,12.88
2023-02-20T10:26:22.286Z,41.04
2023-02-20T10:27:25.592Z,7.76
2023-02-20T10:28:28.883Z,25.68
2023-02-20T10:29:32.188Z,35.92
2023-02-20T10:30:35.464Z,69.2
2023-02-20T10:31:38.757Z,58.96
2023-02-20T10:32:42.056Z,64.08
2023-02-20T10:33:45.335Z,43.6
2023-02-20T10:34:48.632Z,76.88
2023-02-20T10:35:51.931Z,46.16
2023-02-20T10:36:55.249Z,64.08
2023-02-20T10:37:58.501Z,76.88
2023-02-20T10:39:01.808Z,66.64
2023-02-20T10:40:04.118Z,84.56
2023-02-20T10:41:07.407Z,66.64
2023-02-20T10:42:10.705Z,84.56
2023-02-20T10:43:13.976Z,64.08
2023-02-20T10:44:17.305Z,99.92
2023-02-20T10:45:20.555Z,97.36
2023-02-20T10:46:23.867Z,102.48
2023-02-20T10:47:26.184Z,110.16
2023-02-20T10:48:28.485Z,107.6
2023-02-20T10:49:30.855Z,117.84
2023-02-20T10:50:33.115Z,112.72
2023-02-20T10:51:36.392Z,122.96
2023-02-20T10:52:39.695Z,110.16
2023-02-20T10:53:43.024Z,161.36
2023-02-20T10:54:46.276Z,161.36
2023-02-20T10:55:49.565Z,133.2
2023-02-20T10:56:52.857Z,158.8
2023-02-20T10:57:56.151Z,189.52
2023-02-20T10:58:59.461Z,156.24
2023-02-20T11:00:02.741Z,189.52
2023-02-20T11:01:06.014Z,166.48
2023-02-20T11:02:09.319Z,207.44
2023-02-20T11:03:12.629Z,158.8
2023-02-20T11:04:14.910Z,186.96
2023-02-20T11:05:18.270Z,176.72
2023-02-20T11:06:21.527Z,179.28
2023-02-20T11:07:24.907Z,204.88
2023-02-20T11:08:28.087Z,197.2
2023-02-20T11:09:31.384Z,186.96
2023-02-20T11:10:35.361Z,179.28
2023-02-20T11:11:37.680Z,207.44
2023-02-20T11:12:39.970Z,181.84
2023-02-20T11:13:42.302Z,192.08
2023-02-20T11:14:44.660Z,186.96
2023-02-20T11:15:47.984Z,225.36
2023-02-20T11:16:51.316Z,207.44
2023-02-20T11:17:54.624Z,222.8
2023-02-20T11:18:57.916Z,207.44
2023-02-20T11:20:01.161Z,215.12
2023-02-20T11:21:04.339Z,215.12
2023-02-20T11:22:07.634Z,227.92
2023-02-20T11:23:10.940Z,217.68
2023-02-20T11:24:14.227Z,227.92
2023-02-20T11:25:17.505Z,181.84
2023-02-20T11:26:20.810Z,243.28
2023-02-20T11:27:24.096Z,235.6
2023-02-20T11:28:26.405Z,225.36
2023-02-20T11:29:29.701Z,263.76
2023-02-20T11:30:32.989Z,256.08
2023-02-20T11:31:36.288Z,235.6
2023-02-20T11:32:39.569Z,245.84
2023-02-20T11:33:42.864Z,225.36
2023-02-20T11:34:46.161Z,256.08
2023-02-20T11:35:48.477Z,253.52
2023-02-20T11:36:50.781Z,235.6
2023-02-20T11:37:53.104Z,261.2
2023-02-20T11:38:55.397Z,256.08
2023-02-20T11:39:58.680Z,225.36
2023-02-20T11:41:01.995Z,261.2
2023-02-20T11:42:05.286Z,271.44
2023-02-20T11:43:08.563Z,253.52
2023-02-20T11:44:11.872Z,281.68
2023-02-20T11:45:15.165Z,263.76
2023-02-20T11:46:18.442Z,281.68
2023-02-20T11:47:21.733Z,299.6
2023-02-20T11:48:25.020Z,299.6
2023-02-20T11:49:28.335Z,274
2023-02-20T11:50:31.610Z,294.48
2023-02-20T11:51:35.653Z,263.76
2023-02-20T11:52:37.942Z,256.08
2023-02-20T11:53:41.227Z,279.12
2023-02-20T11:54:44.533Z,263.76
2023-02-20T11:55:47.869Z,256.08
2023-02-20T11:56:51.095Z,286.8
2023-02-20T11:57:54.372Z,286.8
2023-02-20T11:58:57.686Z,281.68
2023-02-20T11:59:59.993Z,294.48
2023-02-20T12:01:02.323Z,263.76
2023-02-20T12:02:05.586Z,281.68
2023-02-20T12:03:08.866Z,307.28
2023-02-20T12:04:12.163Z,304.72
2023-02-20T12:05:15.466Z,294.48
2023-02-20T12:06:18.744Z,297.04
2023-02-20T12:07:22.029Z,314.96
2023-02-20T12:08:25.334Z,307.28
2023-02-20T12:09:28.621Z,294.48
2023-02-20T12:10:31.933Z,271.44
2023-02-20T12:11:35.776Z,314.96
2023-02-20T12:12:39.017Z,279.12
2023-02-20T12:13:42.315Z,297.04
2023-02-20T12:14:44.659Z,281.68
2023-02-20T12:15:47.925Z,322.64
2023-02-20T12:16:51.240Z,304.72
2023-02-20T12:17:54.505Z,325.2
2023-02-20T12:18:57.804Z,314.96
2023-02-20T12:20:01.099Z,294.48
2023-02-20T12:21:04.393Z,314.96
2023-02-20T12:22:06.692Z,-322.48
2023-02-20T12:23:09.000Z,-235.52
2023-02-20T12:24:12.290Z,-325.04
2023-02-20T12:25:15.577Z,307.28
2023-02-20T12:26:18.864Z,314.96
2023-02-20T12:27:22.183Z,-289.2
2023-02-20T12:28:25.471Z,-299.44
2023-02-20T12:29:28.758Z,-299.44
2023-02-20T12:30:32.056Z,-322.48
2023-02-20T12:31:35.872Z,325.2
2023-02-20T12:32:39.163Z,314.96
2023-02-20T12:33:42.442Z,-325.04
2023-02-20T12:34:45.746Z,-317.36
2023-02-20T12:35:49.145Z,-317.36
2023-02-20T12:36:51.330Z,-325.04
2023-02-20T12:37:54.677Z,-322.48
2023-02-20T12:38:57.910Z,307.28
2023-02-20T12:40:01.233Z,299.6
2023-02-20T12:41:04.499Z,-314.8
2023-02-20T12:42:07.794Z,-296.88
2023-02-20T12:43:11.092Z,-309.68
2023-02-20T12:44:13.405Z,-302
2023-02-20T12:45:15.709Z,-317.36
2023-02-20T12:46:18.022Z,312.4
2023-02-20T12:47:20.323Z,-325.04
2023-02-20T12:48:22.639Z,-296.88
2023-02-20T12:49:24.956Z,-307.12
2023-02-20T12:50:28.232Z,-302
2023-02-20T12:51:31.547Z,-322.48
2023-02-20T12:52:34.834Z,-322.48
2023-02-20T12:53:38.112Z,-309.68
2023-02-20T12:54:41.424Z,-289.2
2023-02-20T12:55:44.763Z,-317.36
2023-02-20T12:56:48.032Z,-289.2
2023-02-20T12:57:51.290Z,-284.08
2023-02-20T12:58:54.566Z,-289.2
2023-02-20T12:59:57.876Z,-273.84
2023-02-20T13:01:01.159Z,-291.76
2023-02-20T13:02:04.454Z,-291.76
2023-02-20T13:03:06.764Z,-284.08
2023-02-20T13:04:10.060Z,-250.8
2023-02-20T13:05:13.354Z,-289.2
2023-02-20T13:06:16.705Z,-289.2
2023-02-20T13:07:19.955Z,-268.72
2023-02-20T13:08:23.214Z,-250.8
2023-02-20T13:09:26.534Z,-258.48
2023-02-20T13:10:28.843Z,-232.88
2023-02-20T13:11:31.137Z,-261.04
2023-02-20T13:12:33.454Z,-232.88
2023-02-20T13:13:36.133Z,-235.44
2023-02-20T13:14:39.421Z,-243.12
2023-02-20T13:15:42.721Z,-243.12
2023-02-20T13:16:46.005Z,-240.56
2023-02-20T13:17:49.304Z,-243.12